メインページ
METAR-TAF:

METAR-TAF

空港 :

カムループス, ブリティッシュコロンビア州, カナダ

緯度: 50-42N, 経度: 120-27W, 海抜: 345m

現時点の気象観測

当レポートは59分前の20:00(UTC)に作成
南/南西の風 4kt、から北西の間で変化する
気温 1°C
湿度 59%
気圧 1025 hPa
視程: 64.4km
高度7000ftの雲はほとんどない

METAR: CYKA 212000Z 21004KT 180V310 40SM FEW070 01/M06 A3026 RMK AC1 SLP267

時間: 12:59 (20:59 UTC)

予報

当レポートは2時間21分前の18:38(UTC)に作成
予報は21日の 19時(UTC)から 22日の 07時(UTC)まで有効
西の風 5kt
視程: 10km
高度7000ftの雲は散在している
21日の 20時(UTC)から 21日の 22時(UTC)まで徐々に
の風 8kt

TAF: CYKA 211838Z 2119/2207 28005KT P6SM SCT070 BECMG 2120/2122 10008KT RMK NXT FCST BY 220100Z

4,000以上の空港の気象観測と天気予報(METAR報とTAF報)

利用可能な観測所は地図上に黄色い丸と赤い丸で示す。

丸の上にカーソルを重ねると観測所名を参照できる。

次にクリックすると気象観測と天気予報を参照できる。

マップの切り替え:黒色「×」印の緑ボタンをクリックして拡大、「-」印の緑ボタンをクリックして縮小、緑色の三角印をクリックして隣りの地図に切り替え


METAR-TAF: